createdAt,value
2023-03-28T00:00:12.236Z,2.9
2023-03-28T00:06:04.160Z,2.8
2023-03-28T00:11:24.994Z,2.8
2023-03-28T00:17:01.438Z,2.6
2023-03-28T00:22:52.463Z,2.5
2023-03-28T00:28:12.015Z,2.4
2023-03-28T00:33:48.393Z,2.3
2023-03-28T00:39:40.415Z,2.2
2023-03-28T00:45:16.366Z,2.1
2023-03-28T00:51:25.329Z,1.9
2023-03-28T00:57:01.533Z,1.8
2023-03-28T01:02:37.239Z,1.8
2023-03-28T01:08:14.492Z,1.7
2023-03-28T01:13:51.033Z,1.6
2023-03-28T01:19:13.752Z,1.6
2023-03-28T01:24:46.852Z,1.4
2023-03-28T01:29:51.687Z,1.4
2023-03-28T01:35:27.636Z,1.4
2023-03-28T01:41:04.959Z,1.3
2023-03-28T01:46:41.748Z,1.3
2023-03-28T01:52:17.677Z,1.2
2023-03-28T01:58:01.068Z,1.1
2023-03-28T02:03:37.795Z,1.1
2023-03-28T02:09:13.637Z,1.1
2023-03-28T02:15:05.174Z,1
2023-03-28T02:20:56.627Z,0.9
2023-03-28T02:26:33.014Z,0.9
2023-03-28T02:32:24.945Z,0.9
2023-03-28T02:38:16.524Z,0.9
2023-03-28T02:44:07.795Z,0.9
2023-03-28T02:50:11.434Z,0.8
2023-03-28T02:55:32.698Z,0.8
2023-03-28T03:01:24.008Z,0.8
2023-03-28T03:07:01.743Z,0.8
2023-03-28T03:12:37.739Z,0.7
2023-03-28T03:18:14.540Z,0.7
2023-03-28T03:23:50.615Z,0.7
2023-03-28T03:29:13.168Z,0.6
2023-03-28T03:35:01.585Z,0.6
2023-03-28T03:40:38.169Z,0.6
2023-03-28T03:46:15.089Z,0.6
2023-03-28T03:51:41.704Z,0.5
2023-03-28T03:57:18.145Z,0.5
2023-03-28T04:02:39.085Z,0.4
2023-03-28T04:08:28.062Z,0.4
2023-03-28T04:14:04.636Z,0.4
2023-03-28T04:19:52.328Z,0.3
2023-03-28T04:25:53.027Z,0.3
2023-03-28T04:31:30.279Z,0.3
2023-03-28T04:37:07.011Z,0.3
2023-03-28T04:42:04.484Z,0.4
2023-03-28T04:47:26.420Z,0.4
2023-03-28T04:53:18.194Z,0.5
2023-03-28T04:59:09.930Z,0.6
2023-03-28T05:04:47.631Z,0.8
2023-03-28T05:10:39.657Z,1
2023-03-28T05:16:35.133Z,1.1
2023-03-28T05:22:27.407Z,1.3
2023-03-28T05:28:21.612Z,1.4
2023-03-28T05:34:12.934Z,1.5
2023-03-28T05:40:04.952Z,1.6
2023-03-28T05:45:56.177Z,1.6
2023-03-28T05:51:47.140Z,1.7
2023-03-28T05:57:27.703Z,1.8
2023-03-28T06:03:20.508Z,2
2023-03-28T06:09:25.686Z,2.2
2023-03-28T06:15:17.166Z,2.6
2023-03-28T06:21:34.404Z,3.3
2023-03-28T06:27:10.402Z,3.9
2023-03-28T06:33:03.301Z,4.8
2023-03-28T06:38:55.664Z,5.6
2023-03-28T06:44:47.396Z,6.2
2023-03-28T06:50:24.102Z,6.4
2023-03-28T06:56:00.534Z,6.6
2023-03-28T07:01:51.947Z,6.8
2023-03-28T07:07:47.215Z,7.3
2023-03-28T07:13:23.159Z,8
2023-03-28T07:19:16.556Z,9.1
2023-03-28T07:25:16.710Z,9.8
2023-03-28T07:31:27.229Z,10.3
2023-03-28T07:37:50.736Z,10.5
2023-03-28T07:43:11.150Z,10.6
2023-03-28T07:48:47.448Z,10.7
2023-03-28T07:54:38.470Z,10.6
2023-03-28T08:00:41.019Z,10.3
2023-03-28T08:06:48.347Z,10.1
2023-03-28T08:12:39.404Z,10.2
2023-03-28T08:18:31.450Z,10.7
2023-03-28T08:24:45.361Z,12.5
2023-03-28T08:30:21.048Z,15.2
2023-03-28T08:36:13.624Z,17.6
2023-03-28T08:42:08.144Z,19.9
2023-03-28T08:47:44.215Z,21
2023-03-28T08:53:38.537Z,21.3
2023-03-28T08:59:32.029Z,22
2023-03-28T09:05:41.686Z,23.9
2023-03-28T09:11:34.635Z,27
2023-03-28T09:17:10.283Z,27.7
2023-03-28T09:23:24.712Z,27
2023-03-28T09:29:17.621Z,25.9
2023-03-28T09:34:55.386Z,25.3
2023-03-28T09:40:58.642Z,24.4
2023-03-28T09:47:01.205Z,27.3
2023-03-28T09:53:03.912Z,30.1
2023-03-28T09:58:49.355Z,32.8
2023-03-28T10:04:42.066Z,31.9
2023-03-28T10:10:33.419Z,31.4
2023-03-28T10:16:24.248Z,33.4
2023-03-28T10:22:15.903Z,34.4
2023-03-28T10:28:06.531Z,37.8
2023-03-28T10:33:43.040Z,48.5
2023-03-28T10:39:36.208Z,39.1
2023-03-28T10:45:28.291Z,34.3
2023-03-28T10:51:19.486Z,40.1
2023-03-28T10:57:11.814Z,43.9
2023-03-28T11:03:04.059Z,32.1
2023-03-28T11:09:14.823Z,34.4
2023-03-28T11:15:22.487Z,47.9
2023-03-28T11:20:58.937Z,45.8
2023-03-28T11:27:12.920Z,37.3
2023-03-28T11:33:22.985Z,37.1
2023-03-28T11:38:59.036Z,39.9
2023-03-28T11:44:51.617Z,41.4
2023-03-28T11:50:57.527Z,43.7
2023-03-28T11:56:50.036Z,44.7
2023-03-28T12:02:50.795Z,45.4
2023-03-28T12:09:00.280Z,44.3
2023-03-28T12:15:02.384Z,43.6
2023-03-28T12:20:56.447Z,46.3
2023-03-28T12:26:48.389Z,45.1
2023-03-28T12:32:25.860Z,39.4
2023-03-28T12:38:17.052Z,42.1
2023-03-28T12:43:53.875Z,44.9
2023-03-28T12:49:46.222Z,49.1
2023-03-28T12:55:38.092Z,51.4
2023-03-28T13:01:31.770Z,40.1
2023-03-28T13:07:24.149Z,38.6
2023-03-28T13:13:16.063Z,44.5
2023-03-28T13:19:08.730Z,43.6
2023-03-28T13:24:45.844Z,43.8
2023-03-28T13:30:22.423Z,42.6
2023-03-28T13:36:14.406Z,40.4
2023-03-28T13:41:54.424Z,39.7
2023-03-28T13:47:30.665Z,41.4
2023-03-28T13:53:17.410Z,44.7
2023-03-28T13:59:22.013Z,45.2
2023-03-28T14:05:15.336Z,44.1
2023-03-28T14:11:06.966Z,43.1
2023-03-28T14:17:00.965Z,42.4
2023-03-28T14:23:01.227Z,41.4
2023-03-28T14:28:41.425Z,39.9
2023-03-28T14:34:43.175Z,38.4
2023-03-28T14:40:34.328Z,36.8
2023-03-28T14:46:25.925Z,34.8
2023-03-28T14:52:20.291Z,32.1
2023-03-28T14:58:11.428Z,29.4
2023-03-28T15:04:04.341Z,26.6
2023-03-28T15:09:42.398Z,24.9
2023-03-28T15:15:35.568Z,23.6
2023-03-28T15:21:27.955Z,22
2023-03-28T15:27:19.800Z,20.6
2023-03-28T15:32:58.200Z,19.1
2023-03-28T15:38:52.145Z,17.8
2023-03-28T15:44:43.382Z,16.6
2023-03-28T15:50:36.582Z,15.3
2023-03-28T15:56:45.338Z,14.1
2023-03-28T16:02:36.965Z,13.1
2023-03-28T16:08:32.031Z,12.1
2023-03-28T16:14:23.601Z,11.1
2023-03-28T16:20:00.524Z,10.3
2023-03-28T16:25:36.036Z,9.4
2023-03-28T16:31:13.235Z,8.5
2023-03-28T16:37:05.846Z,7.8
2023-03-28T16:42:57.204Z,7.1
2023-03-28T16:48:48.753Z,6.4
2023-03-28T16:54:39.822Z,5.8
2023-03-28T17:00:00.796Z,5.3
2023-03-28T17:05:56.441Z,4.7
2023-03-28T17:11:48.230Z,4.2
2023-03-28T17:17:40.029Z,3.8
2023-03-28T17:23:01.052Z,3.3
2023-03-28T17:29:08.986Z,2.9
2023-03-28T17:35:02.552Z,2.6
2023-03-28T17:40:54.758Z,2.2
2023-03-28T17:46:47.482Z,1.9
2023-03-28T17:52:26.922Z,1.6
2023-03-28T17:58:19.756Z,1.4
2023-03-28T18:03:57.490Z,1.1
2023-03-28T18:09:51.800Z,0.9
2023-03-28T18:15:43.796Z,0.7
2023-03-28T18:21:20.812Z,0.5
2023-03-28T18:26:58.907Z,0.4
2023-03-28T18:32:39.735Z,0.2
2023-03-28T18:38:33.763Z,0.1
2023-03-28T18:43:56.292Z,-0.1
2023-03-28T18:49:49.121Z,-0.2
2023-03-28T18:55:10.722Z,-0.3
2023-03-28T19:00:48.080Z,-0.4
2023-03-28T19:06:27.370Z,-0.5
2023-03-28T19:11:49.551Z,-0.6
2023-03-28T19:17:26.634Z,-0.7
2023-03-28T19:23:06.830Z,-0.8
2023-03-28T19:28:45.801Z,-0.9
2023-03-28T19:34:38.880Z,-0.9
2023-03-28T19:45:56.065Z,-1
2023-03-28T19:51:52.958Z,-1
2023-03-28T19:57:46.650Z,-1.1
2023-03-28T20:03:23.242Z,-1.1
2023-03-28T20:08:59.960Z,-1.1
2023-03-28T20:14:39.666Z,-1.1
2023-03-28T20:20:17.202Z,-1.1
2023-03-28T20:25:53.869Z,-1.1
2023-03-28T20:31:45.640Z,-1.1
2023-03-28T20:37:37.482Z,-1.1
2023-03-28T20:43:15.373Z,-1.2
2023-03-28T20:49:07.688Z,-1.3
2023-03-28T20:55:03.006Z,-1.3
2023-03-28T21:00:54.980Z,-1.2
2023-03-28T21:06:47.173Z,-1.1
2023-03-28T21:12:38.262Z,-1
2023-03-28T21:24:05.792Z,-0.8
2023-03-28T21:29:26.177Z,-0.8
2023-03-28T21:34:48.949Z,-0.7
2023-03-28T21:40:25.265Z,-0.6
2023-03-28T21:46:00.219Z,-0.5
2023-03-28T21:51:06.350Z,-0.4
2023-03-28T21:56:57.995Z,-0.5
2023-03-28T22:02:36.386Z,-0.4
2023-03-28T22:08:06.294Z,-0.4
2023-03-28T22:13:12.069Z,-0.4
2023-03-28T22:18:33.219Z,-0.5
2023-03-28T22:24:08.534Z,-0.6
2023-03-28T22:29:13.852Z,-0.7
2023-03-28T22:34:49.820Z,-0.8
2023-03-28T22:40:25.216Z,-0.9
2023-03-28T22:51:23.434Z,-1.1
2023-03-28T22:56:59.761Z,-1.1
2023-03-28T23:02:36.766Z,-1.2
2023-03-28T23:08:28.432Z,-1.3
2023-03-28T23:14:04.212Z,-1.4
2023-03-28T23:19:56.746Z,-1.4
2023-03-28T23:25:33.358Z,-1.5
2023-03-28T23:31:26.930Z,-1.6
2023-03-28T23:37:18.964Z,-1.7
2023-03-28T23:43:10.625Z,-1.8
2023-03-28T23:48:46.598Z,-1.9
2023-03-28T23:54:07.458Z,-1.9
2023-03-28T23:59:30.764Z,-2
